Time;durP1;ratioP1;P1;durP2;ratioP2;P2;SDS_P1;SDS_P2;PMS_P1;PMS_P2;Temp;Humidity;BMP_temperature;BMP_pressure;BME280_temperature;BME280_humidity;BME280_pressure;Samples;Min_cycle;Max_cycle;Signal;HPM_P1;HPM_P2
2021/05/07 00:02:14;;;;;;;0.80;0.70;;;;;;;;;;5033662;28;20509;-91
2021/05/07 00:04:40;;;;;;;0.60;0.50;;;7.90;99.90;;;;;;5033284;28;20483;-90
2021/05/07 00:07:06;;;;;;;0.70;0.60;;;7.40;99.90;;;;;;5033621;28;20505;-90
2021/05/07 00:09:33;;;;;;;0.90;0.80;;;7.70;99.90;;;;;;5033291;28;20463;-89
2021/05/07 00:12:00;;;;;;;0.60;0.60;;;7.70;99.90;;;;;;5032519;28;20501;-90
2021/05/07 00:14:26;;;;;;;0.77;0.50;;;7.10;99.90;;;;;;5033544;28;20961;-89
2021/05/07 00:16:55;;;;;;;3.00;1.10;;;7.70;99.90;;;;;;5033515;28;20456;-89
2021/05/07 00:19:21;;;;;;;0.70;0.63;;;7.40;99.90;;;;;;5032992;28;20826;-89
2021/05/07 00:21:51;;;;;;;0.60;0.60;;;7.40;99.90;;;;;;5033343;28;20486;-90
2021/05/07 00:24:17;;;;;;;1.27;0.63;;;;;;;;;;5033061;28;20448;-88
2021/05/07 00:26:44;;;;;;;0.90;0.73;;;7.60;99.90;;;;;;5033501;28;20470;-91
2021/05/07 00:29:13;;;;;;;0.70;0.60;;;;;;;;;;5032425;28;20470;-89
2021/05/07 00:31:39;;;;;;;0.60;0.60;;;7.60;99.90;;;;;;5033029;28;20499;-89
2021/05/07 00:34:06;;;;;;;0.87;0.63;;;7.40;99.90;;;;;;5032549;28;20452;-89
2021/05/07 00:36:32;;;;;;;1.00;0.90;;;;;;;;;;5033124;28;20468;-89
2021/05/07 00:38:59;;;;;;;0.70;0.70;;;7.40;99.90;;;;;;5033047;28;20950;-90
2021/05/07 00:41:25;;;;;;;0.90;0.70;;;7.40;99.90;;;;;;5033328;28;20459;-90
2021/05/07 00:43:53;;;;;;;1.00;0.80;;;7.40;99.90;;;;;;5032109;28;20955;-91
2021/05/07 00:46:20;;;;;;;0.70;0.53;;;7.30;99.90;;;;;;5033546;28;20486;-91
2021/05/07 00:48:47;;;;;;;1.20;0.70;;;;;;;;;;5033433;28;20451;-89
2021/05/07 00:51:14;;;;;;;0.83;0.70;;;7.40;99.90;;;;;;5033583;28;20534;-90
2021/05/07 00:53:41;;;;;;;1.00;0.80;;;7.30;99.90;;;;;;5033479;28;20454;-90
2021/05/07 00:56:07;;;;;;;1.83;0.80;;;;;;;;;;5033393;28;20461;-89
2021/05/07 00:58:34;;;;;;;1.77;0.97;;;7.40;99.90;;;;;;5032509;28;20505;-91
2021/05/07 01:01:00;;;;;;;0.90;0.90;;;7.30;99.90;;;;;;5033021;28;20793;-90
2021/05/07 01:03:27;;;;;;;0.80;0.80;;;7.50;99.90;;;;;;5033095;28;20462;-91
2021/05/07 01:05:53;;;;;;;0.93;0.80;;;7.60;99.90;;;;;;5033160;28;20483;-90
2021/05/07 01:08:20;;;;;;;0.77;0.70;;;7.20;99.90;;;;;;5033549;28;20466;-90
2021/05/07 01:10:47;;;;;;;1.83;0.60;;;7.40;99.90;;;;;;5033563;28;20567;-89
2021/05/07 01:13:14;;;;;;;0.73;0.73;;;7.40;99.90;;;;;;5032272;28;20819;-91
2021/05/07 01:15:40;;;;;;;0.73;0.67;;;7.20;99.90;;;;;;5033221;28;20447;-90
2021/05/07 01:18:07;;;;;;;1.40;0.73;;;7.30;99.90;;;;;;5032810;28;20477;-89
2021/05/07 01:20:35;;;;;;;0.90;0.70;;;7.40;99.90;;;;;;5033220;28;20470;-88
2021/05/07 01:23:03;;;;;;;1.03;0.80;;;8.00;99.90;;;;;;5032837;28;20942;-90
2021/05/07 01:25:31;;;;;;;0.70;0.60;;;7.10;99.90;;;;;;5033712;28;20432;-88
2021/05/07 01:27:59;;;;;;;0.60;0.60;;;7.30;99.90;;;;;;5031934;28;20447;-89
2021/05/07 01:30:28;;;;;;;1.90;0.90;;;7.20;99.90;;;;;;5033468;28;20474;-89
2021/05/07 01:32:54;;;;;;;0.80;0.63;;;7.10;99.90;;;;;;5033286;28;20444;-89
2021/05/07 01:35:23;;;;;;;1.00;0.70;;;7.40;99.90;;;;;;5032551;28;20467;-90
2021/05/07 01:37:53;;;;;;;0.80;0.70;;;7.00;99.90;;;;;;5032781;28;20444;-91
2021/05/07 01:40:22;;;;;;;0.70;0.70;;;7.20;99.90;;;;;;5033182;28;20474;-89
2021/05/07 01:42:50;;;;;;;0.50;0.40;;;7.50;99.90;;;;;;5032086;28;21057;-90
2021/05/07 01:45:18;;;;;;;1.20;0.73;;;7.10;99.90;;;;;;5035614;28;20486;-90
2021/05/07 01:47:45;;;;;;;0.50;0.43;;;;;;;;;;5036643;28;20490;-89
2021/05/07 01:50:14;;;;;;;1.87;1.00;;;7.20;99.90;;;;;;5036577;28;20990;-89
2021/05/07 01:52:40;;;;;;;0.73;0.70;;;7.30;99.90;;;;;;5036642;28;20451;-90
2021/05/07 01:55:10;;;;;;;0.80;0.57;;;7.30;99.90;;;;;;5037626;28;20466;-91
2021/05/07 01:57:37;;;;;;;2.50;0.70;;;7.20;99.90;;;;;;5035155;28;20462;-89
2021/05/07 02:00:07;;;;;;;0.53;0.50;;;6.90;99.90;;;;;;5036467;28;20466;-88
2021/05/07 02:02:33;;;;;;;0.50;0.50;;;;;;;;;;5033714;28;20467;-88
2021/05/07 02:04:59;;;;;;;0.90;0.60;;;7.00;99.90;;;;;;5036216;28;20475;-89
2021/05/07 02:07:27;;;;;;;0.63;0.57;;;;;;;;;;5036348;28;20443;-87
2021/05/07 02:09:53;;;;;;;1.13;0.60;;;7.00;99.90;;;;;;5036156;28;20462;-88
2021/05/07 02:12:21;;;;;;;1.27;0.60;;;6.70;99.90;;;;;;5035208;28;20447;-88
2021/05/07 02:14:47;;;;;;;2.80;0.70;;;;;;;;;;5035890;28;20958;-90
2021/05/07 02:17:14;;;;;;;1.43;0.90;;;6.80;99.90;;;;;;5036140;28;20452;-87
2021/05/07 02:19:40;;;;;;;1.40;1.00;;;6.50;99.90;;;;;;5035866;28;20458;-88
2021/05/07 02:22:06;;;;;;;0.60;0.40;;;6.80;99.90;;;;;;5035871;28;20813;-89
2021/05/07 02:24:33;;;;;;;1.00;0.70;;;6.90;99.90;;;;;;5036109;28;20470;-87
2021/05/07 02:26:59;;;;;;;0.70;0.70;;;6.60;99.90;;;;;;5035063;28;20844;-89
2021/05/07 02:29:26;;;;;;;0.70;0.70;;;6.90;99.90;;;;;;5035353;28;20554;-88
2021/05/07 02:31:53;;;;;;;1.20;0.80;;;;;;;;;;5035678;28;20994;-90
2021/05/07 02:34:19;;;;;;;1.73;0.83;;;6.40;99.90;;;;;;5035530;28;20455;-89
2021/05/07 02:36:46;;;;;;;0.60;0.60;;;6.10;99.90;;;;;;5035599;28;20464;-88
2021/05/07 02:39:15;;;;;;;1.43;0.70;;;;;;;;;;5035427;28;20474;-91
2021/05/07 02:41:43;;;;;;;4.03;0.90;;;6.50;99.90;;;;;;5035487;28;20457;-88
2021/05/07 02:44:09;;;;;;;1.23;0.80;;;6.40;99.90;;;;;;5034527;28;20451;-89
2021/05/07 02:46:37;;;;;;;2.47;0.57;;;6.60;99.90;;;;;;5032452;28;20436;-89
2021/05/07 02:49:04;;;;;;;1.07;0.50;;;6.60;99.90;;;;;;5035318;28;20451;-90
2021/05/07 02:51:31;;;;;;;0.70;0.70;;;;;;;;;;5034861;28;20545;-88
2021/05/07 02:53:58;;;;;;;1.77;0.60;;;6.50;99.90;;;;;;5035277;28;20459;-89
2021/05/07 02:56:24;;;;;;;0.80;0.60;;;6.70;99.90;;;;;;5034515;28;20460;-88
2021/05/07 02:58:51;;;;;;;0.90;0.67;;;;;;;;;;5035096;28;20859;-88
2021/05/07 03:01:17;;;;;;;0.70;0.60;;;6.60;99.90;;;;;;5034942;28;20447;-89
2021/05/07 03:03:45;;;;;;;2.83;0.70;;;6.00;99.90;;;;;;5034853;28;20497;-87
2021/05/07 03:06:11;;;;;;;1.47;0.70;;;6.60;99.90;;;;;;5034728;28;20483;-87
2021/05/07 03:08:37;;;;;;;1.37;1.10;;;6.50;99.90;;;;;;5034760;28;20451;-88
2021/05/07 03:11:04;;;;;;;1.27;0.87;;;7.00;99.90;;;;;;5034545;28;20517;-88
2021/05/07 03:13:30;;;;;;;0.87;0.80;;;6.20;99.90;;;;;;5033806;28;20447;-88
2021/05/07 03:15:57;;;;;;;1.20;0.60;;;;;;;;;;5034671;28;20454;-89
2021/05/07 03:18:24;;;;;;;0.77;0.77;;;6.40;99.90;;;;;;5034453;28;20459;-87
2021/05/07 03:20:52;;;;;;;1.50;1.10;;;6.70;99.90;;;;;;5034557;28;20529;-88
2021/05/07 03:23:19;;;;;;;1.57;1.03;;;;;;;;;;5034462;28;20451;-87
2021/05/07 03:25:46;;;;;;;1.60;0.97;;;6.70;99.90;;;;;;5034267;28;20451;-88
2021/05/07 03:28:13;;;;;;;1.20;0.90;;;6.60;99.90;;;;;;5033057;28;20895;-88
2021/05/07 03:30:39;;;;;;;1.60;1.40;;;;;;;;;;5034196;28;20990;-88
2021/05/07 03:33:07;;;;;;;1.53;1.10;;;6.40;99.90;;;;;;5034261;28;20455;-87
2021/05/07 03:35:34;;;;;;;1.83;1.53;;;6.40;99.90;;;;;;5034055;28;20897;-86
2021/05/07 03:38:02;;;;;;;1.57;1.13;;;6.30;99.90;;;;;;5034054;28;20497;-86
2021/05/07 03:40:29;;;;;;;1.30;1.20;;;6.10;99.90;;;;;;5031492;28;20451;-88
2021/05/07 03:42:56;;;;;;;1.57;1.37;;;;;;;;;;5032861;28;20858;-87
2021/05/07 03:45:22;;;;;;;1.37;1.27;;;6.40;99.90;;;;;;5033954;28;20452;-87
2021/05/07 03:47:49;;;;;;;3.30;1.30;;;;;;;;;;5033667;28;20448;-87
2021/05/07 03:50:15;;;;;;;1.93;1.50;;;;;;;;;;5033659;28;20490;-87
2021/05/07 03:52:42;;;;;;;1.90;1.50;;;;;;;;;;5033778;28;20456;-86
2021/05/07 03:55:12;;;;;;;2.20;1.70;;;6.00;99.90;;;;;;5033415;28;20444;-87
2021/05/07 03:57:39;;;;;;;2.30;2.10;;;5.80;99.90;;;;;;5032557;28;20455;-86
2021/05/07 04:00:07;;;;;;;1.20;1.10;;;6.00;99.90;;;;;;5033614;28;20843;-86
2021/05/07 04:02:33;;;;;;;1.33;1.10;;;6.00;99.90;;;;;;5033505;28;20454;-86
2021/05/07 04:04:59;;;;;;;1.40;1.10;;;6.10;99.90;;;;;;5033440;28;20479;-86
2021/05/07 04:07:27;;;;;;;1.20;1.10;;;5.80;99.90;;;;;;5033362;28;20447;-86
2021/05/07 04:09:57;;;;;;;4.60;1.00;;;5.70;99.90;;;;;;5033482;28;20483;-86
2021/05/07 04:13:30;;;;;;;3.33;1.07;;;5.40;99.90;;;;;;5032219;28;20473;-86
2021/05/07 04:15:12;;;;;;;1.90;1.10;;;5.40;99.90;;;;;;5033149;28;21054;-85
2021/05/07 04:17:38;;;;;;;0.93;0.80;;;5.50;99.90;;;;;;5039521;28;20435;-85
2021/05/07 04:20:15;;;;;;;0.77;0.73;;;5.50;99.90;;;;;;5047092;28;20439;-86
2021/05/07 04:22:41;;;;;;;1.07;0.97;;;5.40;99.90;;;;;;5041575;28;20446;-86
2021/05/07 04:25:14;;;;;;;0.80;0.80;;;5.60;99.90;;;;;;5043088;28;20500;-86
2021/05/07 04:27:42;;;;;;;1.83;0.77;;;5.60;99.90;;;;;;5042724;28;20444;-86
2021/05/07 04:30:09;;;;;;;1.03;0.83;;;;;;;;;;5041528;28;20447;-86
2021/05/07 04:32:35;;;;;;;0.80;0.80;;;5.30;99.90;;;;;;5041789;28;20443;-85
2021/05/07 04:35:02;;;;;;;1.00;0.60;;;;;;;;;;5043471;28;20477;-85
2021/05/07 04:37:32;;;;;;;0.83;0.83;;;5.60;99.90;;;;;;5042326;28;20443;-87
2021/05/07 04:39:58;;;;;;;0.90;0.80;;;;;;;;;;5041288;28;20965;-87
2021/05/07 04:42:29;;;;;;;0.97;0.80;;;5.60;99.90;;;;;;5041975;28;20438;-86
2021/05/07 04:44:57;;;;;;;0.60;0.47;;;;;;;;;;5042941;28;20460;-86
2021/05/07 04:47:26;;;;;;;0.90;0.80;;;;;;;;;;5041344;28;20435;-87
2021/05/07 04:49:52;;;;;;;2.77;0.70;;;5.40;99.90;;;;;;5040525;28;20447;-86
2021/05/07 04:52:23;;;;;;;0.80;0.60;;;5.50;99.90;;;;;;5041997;28;20490;-86
2021/05/07 04:54:53;;;;;;;1.07;0.80;;;;;;;;;;5042047;28;20451;-86
2021/05/07 04:57:19;;;;;;;1.10;1.00;;;;;;;;;;5037438;28;20448;-89
2021/05/07 04:59:46;;;;;;;1.10;1.00;;;;;;;;;;5032978;28;20807;-87
2021/05/07 05:02:13;;;;;;;0.80;0.80;;;5.50;99.90;;;;;;5032868;28;20451;-86
2021/05/07 05:04:40;;;;;;;0.80;0.80;;;;;;;;;;5032683;28;20889;-86
2021/05/07 05:07:10;;;;;;;1.10;0.90;;;5.70;99.90;;;;;;5032476;28;20451;-86
2021/05/07 05:09:36;;;;;;;1.27;0.80;;;5.40;99.90;;;;;;5032794;28;20508;-85
2021/05/07 05:12:02;;;;;;;5.23;1.10;;;5.40;99.90;;;;;;5031429;28;20495;-86
2021/05/07 05:14:29;;;;;;;0.60;0.53;;;5.40;99.90;;;;;;5032745;28;20456;-88
2021/05/07 05:16:55;;;;;;;0.60;0.50;;;7.30;99.90;;;;;;5032699;28;20443;-86
2021/05/07 05:19:22;;;;;;;1.13;1.03;;;5.60;99.90;;;;;;5034107;28;20439;-86
2021/05/07 05:21:48;;;;;;;1.67;1.00;;;5.20;99.90;;;;;;5036606;28;20448;-85
2021/05/07 05:24:14;;;;;;;1.20;0.80;;;5.80;99.90;;;;;;5036538;28;20856;-86
2021/05/07 05:26:41;;;;;;;0.70;0.70;;;;;;;;;;5036440;28;20451;-85
2021/05/07 05:29:10;;;;;;;1.83;0.90;;;5.50;99.90;;;;;;5035247;28;20976;-85
2021/05/07 05:31:36;;;;;;;1.00;0.80;;;;;;;;;;5036283;28;20499;-85
2021/05/07 05:34:03;;;;;;;1.90;1.03;;;5.60;99.90;;;;;;5036527;28;20480;-85
2021/05/07 05:36:30;;;;;;;0.80;0.80;;;5.60;99.90;;;;;;5036291;28;20942;-85
2021/05/07 05:38:56;;;;;;;0.77;0.77;;;5.40;99.90;;;;;;5036606;28;20505;-86
2021/05/07 05:41:23;;;;;;;1.93;1.23;;;;;;;;;;5036266;28;20456;-86
2021/05/07 05:43:49;;;;;;;1.30;1.20;;;5.50;99.90;;;;;;5032306;28;20451;-88
2021/05/07 05:46:15;;;;;;;2.90;1.10;;;;;;;;;;5036020;28;20451;-86
2021/05/07 05:48:42;;;;;;;1.33;1.20;;;5.60;99.90;;;;;;5036121;28;20455;-86
2021/05/07 05:51:08;;;;;;;3.27;1.50;;;5.60;99.90;;;;;;5036010;28;21002;-86
2021/05/07 05:53:35;;;;;;;3.90;1.53;;;5.70;99.90;;;;;;5038857;28;20451;-87
2021/05/07 05:56:03;;;;;;;1.37;1.20;;;5.80;99.90;;;;;;5036155;28;20455;-86
2021/05/07 05:58:31;;;;;;;1.90;1.70;;;5.70;99.90;;;;;;5035723;28;20459;-87
2021/05/07 06:00:57;;;;;;;1.83;1.40;;;5.30;99.90;;;;;;5036668;28;20458;-87
2021/05/07 06:03:23;;;;;;;3.17;2.27;;;;;;;;;;5036969;28;20451;-86
2021/05/07 06:05:50;;;;;;;3.73;2.77;;;5.80;99.90;;;;;;5047110;28;20981;-86
2021/05/07 06:08:16;;;;;;;4.40;2.53;;;5.50;99.90;;;;;;5056072;28;20449;-87
2021/05/07 06:10:43;;;;;;;3.73;2.73;;;5.60;99.90;;;;;;5053058;28;20479;-86
2021/05/07 06:13:10;;;;;;;3.30;3.00;;;;;;;;;;5042600;28;20473;-86
2021/05/07 06:15:36;;;;;;;4.50;3.67;;;5.50;99.90;;;;;;5037873;28;20456;-86
2021/05/07 06:18:03;;;;;;;5.33;2.90;;;5.40;99.90;;;;;;5035979;28;20447;-86
2021/05/07 06:20:29;;;;;;;6.63;3.30;;;;;;;;;;5034745;28;20820;-86
2021/05/07 06:22:56;;;;;;;7.40;2.90;;;6.00;99.90;;;;;;5035534;28;20489;-88
2021/05/07 06:25:25;;;;;;;3.90;3.17;;;5.90;99.90;;;;;;5036773;28;20447;-86
2021/05/07 06:27:53;;;;;;;5.30;3.60;;;5.70;99.90;;;;;;5035764;28;20491;-87
2021/05/07 06:30:19;;;;;;;6.23;4.30;;;6.40;99.90;;;;;;5035599;28;20482;-87
2021/05/07 06:32:46;;;;;;;7.57;4.10;;;;;;;;;;5036117;28;20456;-87
2021/05/07 06:35:13;;;;;;;5.33;3.43;;;;;;;;;;5036128;28;20460;-86
2021/05/07 06:37:40;;;;;;;5.53;3.70;;;6.00;99.90;;;;;;5036062;28;20479;-88
2021/05/07 06:40:07;;;;;;;8.03;3.60;;;6.20;99.90;;;;;;5036515;28;20818;-86
2021/05/07 06:42:35;;;;;;;7.97;4.30;;;6.70;99.90;;;;;;5033004;28;20455;-87
2021/05/07 06:45:05;;;;;;;5.90;5.03;;;6.10;99.90;;;;;;5016146;28;20460;-86
2021/05/07 06:47:32;;;;;;;5.20;4.10;;;6.90;99.90;;;;;;5015568;28;20979;-88
2021/05/07 06:49:59;;;;;;;6.10;4.93;;;;;;;;;;5016521;28;20958;-87
2021/05/07 06:52:25;;;;;;;5.10;4.57;;;6.50;99.90;;;;;;5016531;28;20496;-87
2021/05/07 06:54:52;;;;;;;8.00;5.20;;;6.50;99.90;;;;;;5016120;28;20467;-87
2021/05/07 06:57:18;;;;;;;5.10;4.60;;;6.70;99.90;;;;;;5014913;28;21130;-88
2021/05/07 06:59:50;;;;;;;5.97;5.37;;;6.40;99.90;;;;;;5016268;28;20470;-92
2021/05/07 07:02:18;;;;;;;5.53;5.00;;;6.40;99.90;;;;;;5018299;28;20459;-91
2021/05/07 07:04:46;;;;;;;9.30;5.30;;;6.60;99.90;;;;;;5019763;28;20488;-89
2021/05/07 07:07:12;;;;;;;6.10;5.50;;;;;;;;;;5022423;28;20946;-92
2021/05/07 07:09:38;;;;;;;7.47;4.33;;;6.20;99.90;;;;;;5019269;28;20448;-92
2021/05/07 07:12:06;;;;;;;6.07;5.00;;;6.20;99.90;;;;;;5016975;28;20485;-89
2021/05/07 07:14:36;;;;;;;6.70;5.40;;;;;;;;;;5016243;28;20602;-88
2021/05/07 07:17:03;;;;;;;6.17;5.37;;;6.30;99.90;;;;;;5015956;28;20486;-83
2021/05/07 07:19:30;;;;;;;4.50;3.40;;;6.00;99.90;;;;;;5015939;28;20449;-85
2021/05/07 07:21:57;;;;;;;6.73;6.07;;;;;;;;;;5016686;28;20502;-86
2021/05/07 07:24:23;;;;;;;4.17;3.30;;;6.50;99.90;;;;;;5017981;28;20533;-91
2021/05/07 07:26:49;;;;;;;5.60;4.87;;;6.00;99.90;;;;;;5016364;28;20456;-85
2021/05/07 07:29:16;;;;;;;6.13;5.53;;;;;;;;;;5018480;28;20449;-87
2021/05/07 07:31:43;;;;;;;7.50;6.13;;;;;;;;;;5014879;28;20504;-86
2021/05/07 07:34:09;;;;;;;6.50;4.93;;;;;;;;;;5016146;28;20453;-86
2021/05/07 07:36:37;;;;;;;10.83;6.90;;;6.00;99.90;;;;;;5014787;28;20452;-88
2021/05/07 07:39:04;;;;;;;8.33;6.50;;;6.30;99.90;;;;;;5020620;28;20464;-86
2021/05/07 07:41:30;;;;;;;7.47;5.90;;;6.50;99.90;;;;;;5015117;28;20440;-87
2021/05/07 07:43:57;;;;;;;8.13;6.23;;;7.00;99.90;;;;;;5013278;28;20456;-87
2021/05/07 07:46:23;;;;;;;8.63;6.67;;;;;;;;;;5014092;28;20475;-83
2021/05/07 07:48:50;;;;;;;13.80;7.30;;;;;;;;;;5014320;28;20953;-86
2021/05/07 07:51:16;;;;;;;7.77;6.40;;;6.70;99.90;;;;;;5013962;28;20492;-84
2021/05/07 07:53:44;;;;;;;7.17;6.43;;;6.60;99.90;;;;;;5014112;28;20448;-85
2021/05/07 07:56:10;;;;;;;7.57;5.57;;;6.80;99.90;;;;;;5014160;28;20463;-85
2021/05/07 07:58:37;;;;;;;7.67;5.90;;;;;;;;;;5012774;28;20460;-86
2021/05/07 08:01:03;;;;;;;6.47;4.40;;;;;;;;;;5014219;28;20457;-86
2021/05/07 08:03:30;;;;;;;8.10;6.33;;;;;;;;;;5014971;28;20510;-89
2021/05/07 08:05:56;;;;;;;7.57;6.00;;;;;;;;;;5039524;28;20498;-86
2021/05/07 08:08:23;;;;;;;8.07;5.90;;;7.40;99.90;;;;;;5054643;28;20480;-87
2021/05/07 08:10:50;;;;;;;6.40;5.23;;;7.90;99.90;;;;;;5054323;28;20478;-87
2021/05/07 08:13:17;;;;;;;8.00;5.83;;;8.00;99.90;;;;;;5053310;28;20458;-86
2021/05/07 08:15:43;;;;;;;5.10;4.60;;;;;;;;;;5054353;28;20442;-86
2021/05/07 08:18:10;;;;;;;5.27;4.77;;;8.10;99.90;;;;;;5055574;28;20992;-89
2021/05/07 08:20:37;;;;;;;5.77;5.20;;;8.00;99.90;;;;;;5054346;28;20450;-87
2021/05/07 08:23:03;;;;;;;7.20;5.80;;;8.70;99.90;;;;;;5051428;28;20805;-85
2021/05/07 08:25:30;;;;;;;5.40;4.60;;;;;;;;;;5018766;28;20447;-87
2021/05/07 08:27:58;;;;;;;5.13;4.67;;;9.10;99.90;;;;;;5032843;28;20440;-85
2021/05/07 08:30:25;;;;;;;6.47;4.97;;;9.20;99.90;;;;;;5021572;28;20446;-86
2021/05/07 08:32:51;;;;;;;5.77;5.20;;;9.60;99.90;;;;;;5013899;28;20456;-87
2021/05/07 08:35:18;;;;;;;4.07;3.67;;;;;;;;;;5014273;28;20940;-87
2021/05/07 08:37:45;;;;;;;4.27;3.87;;;8.80;99.90;;;;;;5014679;28;20444;-86
2021/05/07 08:40:14;;;;;;;5.47;4.97;;;9.50;99.90;;;;;;5014360;28;20456;-87
2021/05/07 08:42:40;;;;;;;3.13;2.73;;;10.30;99.90;;;;;;5025161;28;20947;-85
2021/05/07 08:45:10;;;;;;;4.47;4.07;;;9.90;99.90;;;;;;5033804;28;20451;-85
2021/05/07 08:47:36;;;;;;;3.33;3.03;;;10.60;99.90;;;;;;5034498;28;20479;-87
2021/05/07 08:50:05;;;;;;;1.73;1.63;;;10.50;99.90;;;;;;5034473;28;20459;-89
2021/05/07 08:52:33;;;;;;;3.57;3.27;;;10.00;99.90;;;;;;5034166;28;20499;-86
2021/05/07 08:55:00;;;;;;;3.70;3.40;;;;;;;;;;5033357;28;20560;-89
2021/05/07 08:57:27;;;;;;;4.13;3.23;;;;;;;;;;5033203;28;20527;-87
2021/05/07 08:59:53;;;;;;;4.00;3.60;;;10.60;99.90;;;;;;5035938;28;20509;-88
2021/05/07 09:02:27;;;;;;;4.00;3.70;;;10.50;99.90;;;;;;5054393;28;20435;-87
2021/05/07 09:04:55;;;;;;;3.93;3.13;;;11.20;99.90;;;;;;5054605;28;20459;-89
2021/05/07 09:07:22;;;;;;;4.90;3.80;;;10.70;99.90;;;;;;5054777;28;20446;-87
2021/05/07 09:09:50;;;;;;;4.90;3.43;;;10.90;99.90;;;;;;5056075;28;20473;-90
2021/05/07 09:15:22;;;;;;;4.23;3.40;;;;;;;;;;5071385;28;20458;-93
2021/05/07 09:18:00;;;;;;;3.40;3.10;;;12.30;99.90;;;;;;5052311;28;20462;-88
2021/05/07 09:20:35;;;;;;;3.50;3.20;;;10.90;99.90;;;;;;5032636;28;20442;-88
2021/05/07 09:23:03;;;;;;;4.63;3.53;;;12.00;99.90;;;;;;5039194;28;20493;-89
2021/05/07 09:25:30;;;;;;;2.80;2.10;;;11.70;99.90;;;;;;5033155;28;20443;-85
2021/05/07 09:28:06;;;;;;;4.20;3.80;;;11.60;99.90;;;;;;5031703;28;20451;-88
2021/05/07 09:30:32;;;;;;;2.60;2.13;;;11.90;99.90;;;;;;5032579;28;20473;-85
2021/05/07 09:33:00;;;;;;;3.20;2.90;;;12.80;99.90;;;;;;5032814;28;20448;-87
2021/05/07 09:35:28;;;;;;;3.50;3.20;;;11.60;99.90;;;;;;5032528;28;20451;-86
2021/05/07 09:37:58;;;;;;;4.30;3.40;;;11.40;99.90;;;;;;5032570;28;20447;-84
2021/05/07 09:40:25;;;;;;;5.50;4.07;;;10.50;99.90;;;;;;5032715;28;20458;-87
2021/05/07 09:43:03;;;;;;;3.50;3.13;;;9.70;99.90;;;;;;5031360;28;20489;-85
2021/05/07 09:45:30;;;;;;;3.93;3.10;;;10.70;99.90;;;;;;5032498;28;20528;-86
2021/05/07 09:48:00;;;;;;;4.70;3.33;;;11.00;99.90;;;;;;5032469;28;20451;-86
2021/05/07 09:50:39;;;;;;;4.10;3.47;;;10.70;99.90;;;;;;5032790;28;20470;-87
2021/05/07 09:53:10;;;;;;;5.00;4.20;;;10.50;99.90;;;;;;5032553;28;20534;-87
2021/05/07 09:55:36;;;;;;;1.30;1.20;;;10.40;99.90;;;;;;5032664;28;20955;-85
2021/05/07 09:58:03;;;;;;;5.00;3.63;;;10.00;99.90;;;;;;5033015;28;20451;-86
2021/05/07 10:00:31;;;;;;;2.67;2.47;;;9.80;99.90;;;;;;5034944;28;20454;-86
2021/05/07 10:02:57;;;;;;;3.80;3.27;;;10.50;99.90;;;;;;5035042;28;20949;-87
2021/05/07 10:05:27;;;;;;;2.70;2.20;;;;;;;;;;5036523;28;20474;-87
2021/05/07 10:07:53;;;;;;;3.00;2.70;;;;;;;;;;5038608;28;20466;-85
2021/05/07 10:10:20;;;;;;;1.20;1.03;;;;;;;;;;5039283;28;20453;-85
2021/05/07 10:12:51;;;;;;;5.23;2.63;;;12.20;94.30;;;;;;5036512;28;20494;-86
2021/05/07 10:15:26;;;;;;;3.10;2.40;;;12.30;99.90;;;;;;5038389;28;20542;-86
2021/05/07 10:17:53;;;;;;;3.70;2.77;;;;;;;;;;5027770;28;20447;-88
2021/05/07 10:20:28;;;;;;;2.80;2.33;;;12.90;99.50;;;;;;5018836;28;20526;-85
2021/05/07 10:22:55;;;;;;;3.27;2.97;;;;;;;;;;5018431;28;20456;-88
2021/05/07 10:25:23;;;;;;;3.53;1.80;;;12.50;92.70;;;;;;5018279;28;20457;-87
2021/05/07 10:27:52;;;;;;;2.80;1.60;;;10.90;98.50;;;;;;5015990;28;20463;-87
2021/05/07 10:30:26;;;;;;;2.73;1.87;;;11.70;99.90;;;;;;5027265;28;20448;-89
2021/05/07 10:32:58;;;;;;;3.20;2.80;;;12.10;92.10;;;;;;5036207;28;20501;-88
2021/05/07 10:35:33;;;;;;;3.63;2.70;;;11.10;98.40;;;;;;5052371;28;20830;-87
2021/05/07 10:38:14;;;;;;;2.20;2.00;;;12.10;98.30;;;;;;5055233;28;20453;-86
2021/05/07 10:40:42;;;;;;;2.80;2.60;;;11.50;90.50;;;;;;5055155;28;20446;-87
2021/05/07 10:43:09;;;;;;;3.33;2.53;;;;;;;;;;5054095;28;20451;-87
2021/05/07 10:45:44;;;;;;;2.70;2.13;;;10.90;99.90;;;;;;5055177;28;20446;-88
2021/05/07 10:48:24;;;;;;;2.87;2.57;;;11.70;93.90;;;;;;5055581;28;20541;-86
2021/05/07 10:50:56;;;;;;;2.87;2.50;;;11.90;99.90;;;;;;5058256;28;20504;-89
2021/05/07 10:53:35;;;;;;;2.80;2.37;;;11.90;97.90;;;;;;5058801;28;20781;-86
2021/05/07 10:56:13;;;;;;;2.70;2.50;;;11.20;92.50;;;;;;5060932;28;20447;-91
2021/05/07 10:58:40;;;;;;;4.90;3.13;;;;;;;;;;5057591;28;20442;-92
2021/05/07 11:01:26;;;;;;;4.43;2.87;;;11.20;99.90;;;;;;5044998;28;20455;-87
2021/05/07 11:04:07;;;;;;;2.20;2.00;;;11.30;92.50;;;;;;5038640;28;20448;-86
2021/05/07 11:06:37;;;;;;;2.90;2.03;;;11.60;99.90;;;;;;5023143;28;20456;-85
2021/05/07 11:09:14;;;;;;;3.90;2.87;;;12.30;99.90;;;;;;5015444;28;20448;-88
2021/05/07 11:11:40;;;;;;;3.30;2.60;;;;;;;;;;5017766;28;20491;-87
2021/05/07 11:14:10;;;;;;;6.10;2.30;;;11.90;99.90;;;;;;5015312;28;20452;-87
2021/05/07 11:16:37;;;;;;;4.10;3.10;;;11.80;99.90;;;;;;5020393;28;20452;-88
2021/05/07 11:19:04;;;;;;;2.40;1.93;;;11.40;95.90;;;;;;5015737;28;20861;-86
2021/05/07 11:21:30;;;;;;;3.43;3.00;;;12.30;99.90;;;;;;5015429;28;20452;-86
2021/05/07 11:23:58;;;;;;;3.60;2.73;;;10.90;99.90;;;;;;5015298;28;20966;-88
2021/05/07 11:26:35;;;;;;;2.30;2.10;;;11.00;99.90;;;;;;5018535;28;20495;-89
2021/05/07 11:29:02;;;;;;;10.40;3.00;;;;;;;;;;5014188;28;20445;-88
2021/05/07 11:31:28;;;;;;;2.60;1.60;;;;;;;;;;5020327;28;20844;-85
2021/05/07 11:33:55;;;;;;;4.17;2.60;;;;;;;;;;5016365;28;20535;-86
2021/05/07 11:36:22;;;;;;;3.53;2.60;;;;;;;;;;5017325;28;20453;-86
2021/05/07 11:38:49;;;;;;;4.07;2.27;;;;;;;;;;5017097;28;20936;-87
2021/05/07 11:41:21;;;;;;;3.83;2.40;;;12.10;99.90;;;;;;5018231;28;20512;-88
2021/05/07 11:43:49;;;;;;;2.50;2.20;;;13.50;99.90;;;;;;5015159;28;20862;-87
2021/05/07 11:46:15;;;;;;;2.27;2.07;;;13.20;99.90;;;;;;5016198;28;20491;-89
2021/05/07 11:48:45;;;;;;;3.23;2.23;;;12.60;99.90;;;;;;5020866;28;20467;-88
2021/05/07 11:51:12;;;;;;;3.77;2.40;;;;;;;;;;5018730;28;20500;-87
2021/05/07 11:53:38;;;;;;;1.43;1.33;;;12.00;90.50;;;;;;5020545;28;20460;-88
2021/05/07 11:56:06;;;;;;;3.60;2.40;;;12.40;99.90;;;;;;5025290;28;20453;-88
2021/05/07 11:58:35;;;;;;;3.00;2.70;;;12.60;99.90;;;;;;5018944;28;20449;-89
2021/05/07 12:01:02;;;;;;;4.57;1.97;;;12.30;98.50;;;;;;5017740;28;20478;-89
2021/05/07 12:03:39;;;;;;;2.60;2.07;;;12.70;94.00;;;;;;5018618;28;20449;-87
2021/05/07 12:06:16;;;;;;;2.90;2.50;;;12.20;97.60;;;;;;5018290;28;20471;-87
2021/05/07 12:08:43;;;;;;;2.03;1.83;;;;;;;;;;5023583;28;20971;-89
2021/05/07 12:11:10;;;;;;;1.83;1.73;;;12.00;97.60;;;;;;5017603;28;20513;-86
2021/05/07 12:13:38;;;;;;;3.20;2.70;;;11.90;90.50;;;;;;5022855;28;20452;-86
2021/05/07 12:16:05;;;;;;;6.70;2.70;;;11.60;99.90;;;;;;5019226;28;20448;-90
2021/05/07 12:18:32;;;;;;;2.17;1.47;;;11.50;99.90;;;;;;5017525;28;20448;-87
2021/05/07 12:20:59;;;;;;;2.40;1.83;;;11.30;99.90;;;;;;5025770;28;20539;-90
2021/05/07 12:23:26;;;;;;;2.03;1.83;;;;;;;;;;5018678;28;20456;-90
2021/05/07 12:25:53;;;;;;;3.87;2.80;;;;;;;;;;5019259;28;20444;-89
2021/05/07 12:28:21;;;;;;;2.53;1.70;;;10.80;90.70;;;;;;5021211;28;20512;-90
2021/05/07 12:30:51;;;;;;;3.43;2.40;;;10.30;99.80;;;;;;5023655;28;20487;-88
2021/05/07 12:33:19;;;;;;;2.37;1.90;;;10.40;90.00;;;;;;5023057;28;20479;-88
2021/05/07 12:35:47;;;;;;;2.90;1.40;;;10.20;90.40;;;;;;5026467;28;20457;-89
2021/05/07 12:38:26;;;;;;;2.70;1.80;;;10.30;99.90;;;;;;5017647;28;20452;-86
2021/05/07 12:40:53;;;;;;;1.37;1.27;;;;;;;;;;5019162;28;20527;-87
2021/05/07 12:43:20;;;;;;;3.20;2.53;;;;;;;;;;5015589;28;20456;-87
2021/05/07 12:45:48;;;;;;;2.37;2.00;;;;;;;;;;5015581;28;20951;-87
2021/05/07 12:48:15;;;;;;;3.33;2.20;;;11.60;99.90;;;;;;5016413;28;20501;-87
2021/05/07 12:50:42;;;;;;;4.77;2.83;;;;;;;;;;5015504;28;20450;-87
2021/05/07 12:53:13;;;;;;;5.00;3.13;;;13.20;91.60;;;;;;5016567;28;21019;-87
2021/05/07 12:55:39;;;;;;;3.40;2.30;;;13.80;90.30;;;;;;5024330;28;20475;-91
2021/05/07 12:58:06;;;;;;;6.10;2.47;;;;;;;;;;5016947;28;20504;-88
2021/05/07 13:00:33;;;;;;;3.20;1.87;;;;;;;;;;5018079;28;20464;-90
2021/05/07 13:03:00;;;;;;;2.10;1.90;;;12.90;95.30;;;;;;5017875;28;20507;-90
2021/05/07 13:05:27;;;;;;;1.80;1.67;;;12.30;91.00;;;;;;5022032;28;20468;-89
2021/05/07 13:07:54;;;;;;;3.67;2.30;;;;;;;;;;5016893;28;20440;-91
2021/05/07 13:10:20;;;;;;;4.30;2.90;;;;;;;;;;5018088;28;20817;-90
2021/05/07 13:12:49;;;;;;;1.90;1.70;;;;;;;;;;5016438;28;20488;-90
2021/05/07 13:15:16;;;;;;;1.67;1.47;;;11.30;99.90;;;;;;5038203;28;20490;-87
2021/05/07 13:17:43;;;;;;;5.80;2.00;;;10.90;99.90;;;;;;5035990;28;20452;-90
2021/05/07 13:20:10;;;;;;;5.07;1.77;;;10.90;99.90;;;;;;5036368;28;20451;-90
2021/05/07 13:22:38;;;;;;;3.93;2.90;;;10.60;91.10;;;;;;5034752;28;20511;-89
2021/05/07 13:25:05;;;;;;;4.80;2.47;;;10.20;99.90;;;;;;5040599;28;20454;-89
2021/05/07 13:27:31;;;;;;;2.47;1.87;;;;;;;;;;5033053;28;20454;-89